Time;durP1;ratioP1;P1;durP2;ratioP2;P2;SDS_P1;SDS_P2;PMS_P1;PMS_P2;Temp;Humidity;BMP_temperature;BMP_pressure;BME280_temperature;BME280_humidity;BME280_pressure;Samples;Min_cycle;Max_cycle;Signal;HPM_P1;HPM_P2
2023/08/05 00:00:40;;;;;;;2.77;2.57;;;21.20;97.00;;;;;;5009647;28;20446;-74
2023/08/05 00:03:08;;;;;;;2.97;2.07;;;21.20;97.00;;;;;;5010630;28;20442;-73
2023/08/05 00:05:39;;;;;;;2.30;2.20;;;21.20;97.30;;;;;;5028381;28;20560;-73
2023/08/05 00:08:08;;;;;;;2.37;2.17;;;21.20;97.00;;;;;;5034452;28;20419;-73
2023/08/05 00:10:36;;;;;;;2.30;2.20;;;21.20;97.00;;;;;;5011057;28;20457;-73
2023/08/05 00:13:04;;;;;;;1.90;1.80;;;21.20;97.00;;;;;;4994455;28;21281;-74
2023/08/05 00:15:33;;;;;;;2.00;1.90;;;21.20;97.00;;;;;;5028309;28;20409;-73
2023/08/05 00:18:01;;;;;;;2.30;2.10;;;21.10;96.90;;;;;;5010525;28;20173;-74
2023/08/05 00:20:30;;;;;;;1.90;1.80;;;21.10;96.90;;;;;;5011247;28;20486;-73
2023/08/05 00:22:58;;;;;;;2.77;2.50;;;21.10;96.90;;;;;;5039761;28;20954;-73
2023/08/05 00:25:26;;;;;;;2.97;2.30;;;21.10;96.80;;;;;;5048229;28;20459;-73
2023/08/05 00:27:53;;;;;;;2.30;2.13;;;21.10;96.80;;;;;;5020778;28;20863;-73
2023/08/05 00:30:19;;;;;;;5.87;2.30;;;21.10;96.80;;;;;;4994258;28;20805;-73
2023/08/05 00:32:47;;;;;;;7.23;2.13;;;21.10;96.80;;;;;;5028692;28;20838;-74
2023/08/05 00:35:13;;;;;;;2.90;2.27;;;21.10;96.80;;;;;;5010588;28;20431;-74
2023/08/05 00:37:41;;;;;;;3.00;2.70;;;21.10;96.80;;;;;;5010556;28;20165;-73
2023/08/05 00:40:08;;;;;;;2.90;2.60;;;21.10;96.80;;;;;;4991870;28;20503;-74
2023/08/05 00:42:34;;;;;;;2.77;2.57;;;21.00;96.70;;;;;;4993865;28;20458;-73
2023/08/05 00:45:00;;;;;;;2.20;2.10;;;21.00;96.70;;;;;;4993746;28;21003;-73
2023/08/05 00:47:29;;;;;;;2.47;2.27;;;21.00;96.70;;;;;;4994050;28;20442;-74
2023/08/05 00:49:59;;;;;;;2.27;1.90;;;21.00;97.10;;;;;;5010448;28;20933;-73
2023/08/05 00:52:28;;;;;;;2.40;2.20;;;21.00;96.70;;;;;;5003548;28;20433;-73
2023/08/05 00:54:54;;;;;;;3.40;2.13;;;21.00;96.70;;;;;;4990842;28;21028;-73
2023/08/05 00:57:21;;;;;;;2.70;2.33;;;21.00;96.70;;;;;;4974640;28;20435;-73
2023/08/05 00:59:54;;;;;;;2.93;2.73;;;21.00;96.70;;;;;;4974804;28;20448;-74
2023/08/05 01:02:22;;;;;;;2.50;2.30;;;21.00;96.70;;;;;;5015993;28;20472;-73
2023/08/05 01:04:50;;;;;;;2.07;1.97;;;20.90;96.70;;;;;;5009911;28;20463;-73
2023/08/05 01:07:19;;;;;;;5.10;2.17;;;20.90;96.70;;;;;;5010071;28;20431;-73
2023/08/05 01:09:45;;;;;;;2.40;2.20;;;20.90;96.70;;;;;;5027365;28;20433;-73
2023/08/05 01:12:14;;;;;;;2.00;1.90;;;20.90;96.70;;;;;;5011175;28;20418;-73
2023/08/05 01:14:42;;;;;;;2.80;2.60;;;20.90;96.70;;;;;;5032038;28;20411;-73
2023/08/05 01:17:10;;;;;;;2.90;2.70;;;20.90;96.60;;;;;;5030346;28;20411;-73
2023/08/05 01:19:37;;;;;;;2.30;2.10;;;20.90;96.60;;;;;;5013905;28;20979;-74
2023/08/05 01:22:21;;;;;;;4.80;2.53;;;20.90;96.70;;;;;;5030025;28;20426;-73
2023/08/05 01:25:19;;;;;;;2.40;2.20;;;20.90;96.70;;;;;;4997053;28;20633;-73
2023/08/05 01:27:46;;;;;;;2.00;1.90;;;20.90;96.60;;;;;;5013259;28;20496;-73
2023/08/05 01:30:14;;;;;;;3.73;2.20;;;20.80;96.60;;;;;;5013333;28;20513;-73
2023/08/05 01:32:41;;;;;;;2.30;2.20;;;20.80;96.60;;;;;;5013683;28;20526;-73
2023/08/05 01:35:09;;;;;;;4.00;2.20;;;20.80;96.60;;;;;;4997611;28;20418;-73
2023/08/05 01:37:35;;;;;;;2.50;2.30;;;20.80;96.60;;;;;;4997479;28;20411;-73
2023/08/05 01:40:04;;;;;;;2.17;1.97;;;20.80;96.60;;;;;;5011693;28;20497;-74
2023/08/05 01:42:30;;;;;;;2.37;2.10;;;20.80;96.60;;;;;;5013043;28;20487;-73
2023/08/05 01:44:59;;;;;;;2.70;2.50;;;20.80;96.50;;;;;;5013652;28;20467;-74
2023/08/05 01:47:25;;;;;;;2.43;2.23;;;20.80;96.50;;;;;;5013264;28;20421;-74
2023/08/05 01:49:54;;;;;;;2.57;2.37;;;20.80;96.50;;;;;;5030080;28;20549;-73
2023/08/05 01:52:20;;;;;;;2.43;2.23;;;20.70;96.40;;;;;;5013519;28;20422;-73
2023/08/05 01:54:49;;;;;;;2.70;2.20;;;20.80;96.40;;;;;;5009288;28;20474;-74
2023/08/05 01:57:15;;;;;;;2.40;2.20;;;20.80;96.50;;;;;;5018536;28;20457;-73
2023/08/05 01:59:43;;;;;;;2.00;1.90;;;20.70;96.40;;;;;;4997690;28;20468;-73
2023/08/05 02:02:12;;;;;;;2.57;2.37;;;20.70;96.40;;;;;;4997747;28;20433;-73
2023/08/05 02:04:38;;;;;;;2.30;2.03;;;20.70;96.40;;;;;;5013858;28;20445;-73
2023/08/05 02:07:07;;;;;;;2.63;2.20;;;20.70;96.40;;;;;;5031734;28;20860;-74
2023/08/05 02:09:35;;;;;;;4.20;2.10;;;20.70;96.30;;;;;;5013641;28;20229;-73
2023/08/05 02:12:03;;;;;;;2.53;2.20;;;20.70;96.30;;;;;;5013942;28;20959;-73
2023/08/05 02:14:33;;;;;;;3.30;2.23;;;20.70;96.30;;;;;;4997378;28;20462;-74
2023/08/05 02:16:58;;;;;;;2.10;1.90;;;20.70;96.30;;;;;;5013366;28;20445;-74
2023/08/05 02:19:29;;;;;;;3.50;2.20;;;20.70;96.30;;;;;;5013640;28;20418;-73
2023/08/05 02:21:57;;;;;;;2.10;2.00;;;20.70;96.30;;;;;;5013901;28;20763;-74
2023/08/05 02:24:23;;;;;;;3.13;2.43;;;20.60;96.20;;;;;;5046141;28;20463;-73
2023/08/05 02:26:49;;;;;;;2.07;1.97;;;20.60;96.20;;;;;;5004610;28;20429;-73
2023/08/05 02:29:15;;;;;;;2.13;1.93;;;20.60;96.10;;;;;;4996877;28;20955;-73
2023/08/05 02:31:41;;;;;;;2.40;2.20;;;20.60;96.20;;;;;;5031269;28;20602;-73
2023/08/05 02:34:07;;;;;;;2.50;2.30;;;20.60;96.10;;;;;;5029857;28;20429;-73
2023/08/05 02:36:36;;;;;;;3.57;2.67;;;20.60;96.10;;;;;;4997426;28;20428;-73
2023/08/05 02:39:02;;;;;;;3.23;2.40;;;20.60;96.10;;;;;;5013496;28;20509;-73
2023/08/05 02:41:28;;;;;;;2.70;2.50;;;20.60;96.10;;;;;;4996691;28;20525;-73
2023/08/05 02:43:54;;;;;;;2.60;2.40;;;20.50;96.10;;;;;;5013110;28;20496;-73
2023/08/05 02:46:20;;;;;;;4.70;2.17;;;20.50;96.10;;;;;;4996602;28;20437;-73
2023/08/05 02:48:49;;;;;;;3.00;1.93;;;20.50;96.10;;;;;;5029365;28;20452;-74
2023/08/05 02:51:17;;;;;;;2.40;2.20;;;20.50;96.10;;;;;;4996820;28;20450;-74
2023/08/05 02:53:46;;;;;;;1.97;1.87;;;20.50;96.10;;;;;;5012909;28;20464;-74
2023/08/05 02:56:12;;;;;;;2.23;2.10;;;20.50;96.10;;;;;;5013211;28;20435;-73
2023/08/05 02:58:43;;;;;;;2.53;2.20;;;20.50;96.10;;;;;;4997408;28;21142;-74
2023/08/05 03:01:12;;;;;;;4.60;2.40;;;20.50;96.10;;;;;;4996820;28;20507;-73
2023/08/05 03:03:41;;;;;;;1.97;1.87;;;20.50;96.10;;;;;;5029251;28;20425;-73
2023/08/05 03:06:12;;;;;;;2.57;2.43;;;20.50;96.10;;;;;;4996494;28;20470;-73
2023/08/05 03:08:38;;;;;;;3.77;2.80;;;20.50;96.10;;;;;;4996645;28;20584;-73
2023/08/05 03:11:04;;;;;;;3.50;2.20;;;20.50;96.10;;;;;;5009590;28;20818;-73
2023/08/05 03:13:35;;;;;;;2.30;2.10;;;20.40;96.00;;;;;;4993242;28;20452;-73
2023/08/05 03:16:12;;;;;;;3.30;2.20;;;20.40;96.00;;;;;;4997603;28;20418;-73
2023/08/05 03:18:44;;;;;;;2.40;2.10;;;20.40;96.00;;;;;;4997134;28;20430;-73
2023/08/05 03:21:10;;;;;;;2.87;2.30;;;20.40;96.00;;;;;;4996043;28;20449;-73
2023/08/05 03:23:40;;;;;;;2.40;2.30;;;20.40;96.00;;;;;;5026273;28;20568;-74
2023/08/05 03:26:07;;;;;;;2.20;2.10;;;20.40;95.90;;;;;;5026358;28;20491;-73
2023/08/05 03:28:33;;;;;;;3.30;2.20;;;20.40;95.90;;;;;;5011980;28;20966;-73
2023/08/05 03:30:59;;;;;;;2.67;2.47;;;20.40;95.90;;;;;;5008603;28;20450;-73
2023/08/05 03:33:29;;;;;;;2.80;2.60;;;20.30;95.80;;;;;;5025140;28;20461;-73
2023/08/05 03:38:51;;;;;;;2.40;2.20;;;20.30;95.80;;;;;;4988800;28;20999;-73
2023/08/05 03:41:20;;;;;;;2.33;2.23;;;20.30;95.80;;;;;;4953798;28;20506;-74
2023/08/05 03:43:47;;;;;;;3.30;2.70;;;20.30;95.80;;;;;;4937599;28;20438;-73
2023/08/05 03:46:13;;;;;;;3.07;2.77;;;20.30;95.80;;;;;;4937868;28;20460;-73
2023/08/05 03:48:39;;;;;;;2.20;2.00;;;20.30;95.80;;;;;;4937594;28;20423;-73
2023/08/05 03:51:07;;;;;;;2.60;2.40;;;20.20;95.70;;;;;;4937938;28;20456;-73
2023/08/05 03:53:35;;;;;;;3.07;2.87;;;20.20;95.70;;;;;;4969735;28;20463;-73
2023/08/05 03:56:02;;;;;;;3.00;2.70;;;20.30;95.80;;;;;;4937998;28;20954;-73
2023/08/05 03:58:28;;;;;;;4.23;2.57;;;20.20;95.70;;;;;;4953395;28;20454;-73
2023/08/05 04:00:57;;;;;;;2.40;2.20;;;20.20;95.70;;;;;;4937075;28;20460;-73
2023/08/05 04:03:23;;;;;;;4.00;2.33;;;20.20;95.70;;;;;;4952085;28;20423;-73
2023/08/05 04:05:49;;;;;;;3.07;2.63;;;20.20;95.70;;;;;;4950929;28;20439;-73
2023/08/05 04:08:17;;;;;;;3.40;2.80;;;20.20;95.70;;;;;;4937713;28;20430;-73
2023/08/05 04:10:47;;;;;;;4.33;2.40;;;20.20;95.70;;;;;;4968401;28;20444;-73
2023/08/05 04:13:16;;;;;;;2.47;2.27;;;20.20;95.80;;;;;;4969539;28;20400;-73
2023/08/05 04:15:42;;;;;;;2.80;2.60;;;20.20;95.80;;;;;;4936179;28;20424;-73
2023/08/05 04:18:08;;;;;;;4.37;2.30;;;20.10;95.70;;;;;;4967662;28;20416;-73
2023/08/05 04:20:38;;;;;;;2.93;2.63;;;20.10;96.00;;;;;;4920235;28;20468;-73
2023/08/05 04:23:08;;;;;;;4.63;2.63;;;20.10;95.60;;;;;;4935773;28;20473;-73
2023/08/05 04:25:34;;;;;;;2.40;2.20;;;20.10;95.60;;;;;;4951698;28;20479;-73
2023/08/05 04:28:00;;;;;;;2.83;2.60;;;20.10;95.60;;;;;;4951993;28;20512;-73
2023/08/05 04:30:26;;;;;;;2.57;2.37;;;20.10;95.60;;;;;;4935658;28;20459;-73
2023/08/05 04:32:52;;;;;;;2.47;2.30;;;20.10;95.60;;;;;;4936082;28;20432;-73
2023/08/05 04:35:20;;;;;;;2.70;2.50;;;20.10;95.60;;;;;;4967684;28;20413;-73
2023/08/05 04:37:46;;;;;;;4.70;2.80;;;20.10;95.60;;;;;;4921502;28;1094029;-73
2023/08/05 04:40:17;;;;;;;4.03;2.90;;;20.10;95.60;;;;;;4950889;29;20525;-73
2023/08/05 04:42:45;;;;;;;2.70;2.50;;;20.00;95.50;;;;;;4932969;29;20438;-73
2023/08/05 04:45:15;;;;;;;2.67;2.47;;;20.00;95.60;;;;;;4948808;29;20448;-73
2023/08/05 04:47:41;;;;;;;3.00;2.80;;;20.00;95.50;;;;;;4952476;28;20420;-73
2023/08/05 04:50:07;;;;;;;2.60;2.40;;;20.00;95.50;;;;;;4954375;29;20510;-73
2023/08/05 04:52:33;;;;;;;3.40;2.60;;;20.00;95.50;;;;;;4953199;29;20431;-73
2023/08/05 04:55:09;;;;;;;2.80;2.60;;;20.00;95.50;;;;;;4953022;29;20409;-73
2023/08/05 04:57:37;;;;;;;2.90;2.70;;;20.00;95.50;;;;;;4937177;29;20543;-73
2023/08/05 05:00:06;;;;;;;3.07;2.70;;;20.00;95.50;;;;;;4936421;29;20968;-73
2023/08/05 05:02:32;;;;;;;3.80;2.80;;;20.00;95.60;;;;;;4920940;29;20411;-73
2023/08/05 05:05:02;;;;;;;2.70;2.50;;;20.00;95.60;;;;;;4937338;29;20452;-73
2023/08/05 05:07:28;;;;;;;2.40;2.30;;;20.00;95.60;;;;;;4937501;29;20441;-79
2023/08/05 05:09:54;;;;;;;2.70;2.50;;;19.90;95.50;;;;;;4957138;29;20440;-77
2023/08/05 05:12:21;;;;;;;2.27;2.00;;;19.90;95.60;;;;;;4938267;29;20486;-76
2023/08/05 05:14:47;;;;;;;2.60;2.40;;;19.90;95.50;;;;;;4936520;29;20226;-75
2023/08/05 05:17:18;;;;;;;3.00;2.80;;;19.90;95.60;;;;;;4964049;28;20506;-77
2023/08/05 05:19:45;;;;;;;3.07;2.40;;;19.90;95.60;;;;;;4916878;29;20450;-76
2023/08/05 05:22:17;;;;;;;4.00;2.60;;;19.90;95.60;;;;;;4934074;29;20474;-77
2023/08/05 05:24:57;;;;;;;3.10;2.60;;;19.90;95.60;;;;;;4951474;29;20961;-77
2023/08/05 05:27:23;;;;;;;2.60;2.40;;;19.90;95.60;;;;;;5002674;28;20595;-77
2023/08/05 05:29:52;;;;;;;3.00;2.50;;;19.90;95.60;;;;;;4979539;28;20459;-78
2023/08/05 05:32:18;;;;;;;2.97;2.77;;;19.90;95.60;;;;;;4955326;28;20807;-76
2023/08/05 05:34:47;;;;;;;3.80;2.50;;;19.90;95.60;;;;;;4972095;28;20528;-76
2023/08/05 05:37:13;;;;;;;3.13;2.83;;;19.90;95.70;;;;;;4988853;28;20516;-76
2023/08/05 05:39:40;;;;;;;5.50;2.80;;;19.90;95.70;;;;;;4990839;28;20526;-76
2023/08/05 05:42:08;;;;;;;2.70;2.50;;;19.90;95.70;;;;;;4992038;28;20406;-76
2023/08/05 05:44:38;;;;;;;5.50;3.10;;;19.90;95.80;;;;;;4991096;28;20451;-77
2023/08/05 05:47:07;;;;;;;3.00;2.40;;;19.90;95.80;;;;;;4972109;28;20461;-78
2023/08/05 05:49:34;;;;;;;4.50;2.93;;;19.90;95.80;;;;;;4974402;28;20821;-78
2023/08/05 05:52:00;;;;;;;3.07;2.87;;;19.90;95.90;;;;;;4990472;28;20477;-78
2023/08/05 05:54:28;;;;;;;3.20;2.90;;;19.90;95.90;;;;;;4974723;28;20475;-78
2023/08/05 05:56:54;;;;;;;3.10;2.90;;;19.90;96.00;;;;;;4991510;28;20439;-77
2023/08/05 05:59:20;;;;;;;3.03;2.73;;;19.90;96.00;;;;;;4970591;28;20430;-78
2023/08/05 06:01:46;;;;;;;3.67;2.77;;;19.90;96.00;;;;;;4956231;28;20437;-77
2023/08/05 06:04:12;;;;;;;3.27;3.00;;;19.90;96.00;;;;;;4954285;28;20184;-77
2023/08/05 06:06:43;;;;;;;3.00;2.80;;;19.90;96.10;;;;;;4964535;28;20588;-77
2023/08/05 06:09:09;;;;;;;3.10;2.60;;;19.80;96.10;;;;;;4957988;28;20999;-77
2023/08/05 06:11:38;;;;;;;6.00;3.13;;;19.80;96.10;;;;;;4991117;28;20434;-77
2023/08/05 06:14:05;;;;;;;3.33;3.03;;;19.80;96.10;;;;;;4973226;28;20411;-78
2023/08/05 06:16:33;;;;;;;3.63;3.43;;;19.80;96.20;;;;;;4988949;28;20411;-77
2023/08/05 06:18:59;;;;;;;3.33;3.03;;;19.80;96.20;;;;;;4955395;28;20485;-77
2023/08/05 06:21:25;;;;;;;3.27;3.07;;;19.80;96.20;;;;;;4971637;28;20453;-77
2023/08/05 06:23:56;;;;;;;3.10;2.90;;;19.80;96.20;;;;;;4954101;28;20404;-79
2023/08/05 06:26:22;;;;;;;3.90;3.13;;;19.80;96.30;;;;;;4968794;28;20466;-78
2023/08/05 06:28:52;;;;;;;3.00;2.80;;;19.80;96.30;;;;;;4975648;28;21325;-77
2023/08/05 06:31:18;;;;;;;3.67;3.37;;;19.80;96.30;;;;;;4973822;28;20492;-79
2023/08/05 06:33:46;;;;;;;2.83;2.63;;;19.80;96.30;;;;;;4991662;28;20416;-77
2023/08/05 06:36:12;;;;;;;3.50;3.00;;;19.90;96.40;;;;;;4991869;28;20421;-77
2023/08/05 06:38:38;;;;;;;3.37;3.07;;;19.80;96.30;;;;;;4975513;28;20442;-77
2023/08/05 06:41:04;;;;;;;3.73;3.40;;;19.80;96.40;;;;;;4975351;28;20537;-77
2023/08/05 06:43:30;;;;;;;5.60;3.23;;;19.90;96.40;;;;;;4991721;28;20414;-77
2023/08/05 06:45:58;;;;;;;3.53;3.33;;;19.90;96.40;;;;;;4974628;28;21002;-77
2023/08/05 06:48:24;;;;;;;3.63;3.43;;;19.80;96.40;;;;;;4976877;28;20524;-79
2023/08/05 06:50:50;;;;;;;3.73;3.43;;;19.80;96.40;;;;;;4975215;28;20478;-79
2023/08/05 06:53:19;;;;;;;3.83;3.53;;;19.80;96.40;;;;;;4975365;28;20434;-76
2023/08/05 06:55:46;;;;;;;3.83;3.40;;;19.90;96.50;;;;;;4992213;28;20524;-80
2023/08/05 06:58:14;;;;;;;4.20;3.90;;;19.80;96.50;;;;;;4975715;28;20440;-78
2023/08/05 07:00:41;;;;;;;3.77;3.47;;;19.80;96.60;;;;;;4974635;28;20824;-78
2023/08/05 07:03:07;;;;;;;4.60;3.50;;;19.80;96.70;;;;;;4990509;28;20423;-79
2023/08/05 07:05:34;;;;;;;5.20;3.70;;;19.90;96.70;;;;;;4973728;28;21033;-78
2023/08/05 07:08:00;;;;;;;4.37;3.97;;;19.80;96.70;;;;;;4991962;28;20425;-78
2023/08/05 07:10:26;;;;;;;3.93;3.60;;;19.80;96.80;;;;;;4975496;28;20950;-78
2023/08/05 07:12:52;;;;;;;4.23;3.67;;;19.90;96.90;;;;;;4975280;28;20414;-80
2023/08/05 07:15:20;;;;;;;4.90;4.00;;;19.90;96.90;;;;;;4992057;28;20457;-80
2023/08/05 07:17:46;;;;;;;4.13;3.83;;;19.80;96.90;;;;;;4991331;28;20457;-79
2023/08/05 07:20:12;;;;;;;4.47;4.07;;;19.80;96.90;;;;;;4991334;28;20455;-80
2023/08/05 07:22:39;;;;;;;4.17;3.80;;;19.80;96.90;;;;;;4976032;28;20561;-79
2023/08/05 07:25:05;;;;;;;4.50;4.10;;;19.80;96.90;;;;;;4992676;28;20457;-78
2023/08/05 07:27:31;;;;;;;4.40;4.00;;;19.80;96.90;;;;;;4988290;28;20458;-78
2023/08/05 07:30:00;;;;;;;4.40;4.10;;;19.80;97.00;;;;;;5011654;28;20520;-78
2023/08/05 07:32:30;;;;;;;4.53;4.23;;;19.90;97.00;;;;;;4994376;28;20436;-78
2023/08/05 07:34:56;;;;;;;6.10;5.07;;;19.80;96.90;;;;;;4991246;28;20450;-78
2023/08/05 07:37:24;;;;;;;4.77;4.27;;;19.90;97.00;;;;;;4976601;28;20498;-79
2023/08/05 07:39:50;;;;;;;4.47;4.17;;;19.80;96.90;;;;;;5011004;28;22126;-80
2023/08/05 07:42:19;;;;;;;5.27;4.77;;;19.80;97.00;;;;;;4977507;28;20426;-78
2023/08/05 07:44:46;;;;;;;4.70;4.30;;;19.90;97.00;;;;;;4993553;28;20579;-78
2023/08/05 07:47:12;;;;;;;3.90;3.60;;;19.90;97.00;;;;;;4977907;28;20437;-79
2023/08/05 07:49:41;;;;;;;4.50;4.17;;;19.80;96.90;;;;;;4977496;28;20871;-78
2023/08/05 07:52:07;;;;;;;4.77;4.30;;;19.80;96.90;;;;;;5012095;28;20522;-78
2023/08/05 07:54:34;;;;;;;4.67;4.30;;;19.90;97.00;;;;;;4996699;28;20420;-77
2023/08/05 07:57:00;;;;;;;5.40;4.00;;;19.80;96.90;;;;;;5008947;28;20531;-76
2023/08/05 07:59:27;;;;;;;4.70;4.30;;;19.90;97.00;;;;;;4990976;28;20935;-78
2023/08/05 08:01:55;;;;;;;6.00;4.43;;;19.80;97.00;;;;;;4999919;28;20435;-79
2023/08/05 08:04:21;;;;;;;5.77;5.07;;;19.90;97.10;;;;;;4998278;28;20454;-78
2023/08/05 08:06:48;;;;;;;5.73;5.23;;;19.90;97.20;;;;;;4978072;28;20441;-80
2023/08/05 08:09:14;;;;;;;5.43;4.87;;;19.80;97.10;;;;;;4998597;28;20472;-79
2023/08/05 08:11:41;;;;;;;4.87;4.47;;;19.90;97.30;;;;;;4977607;28;20414;-79
2023/08/05 08:14:10;;;;;;;5.43;4.93;;;19.90;97.30;;;;;;5012452;28;20397;-77
2023/08/05 08:16:36;;;;;;;5.27;4.77;;;19.90;97.40;;;;;;4992937;28;20426;-77
2023/08/05 08:19:05;;;;;;;6.47;5.50;;;19.90;97.50;;;;;;4993730;28;20513;-79
2023/08/05 08:21:31;;;;;;;5.63;4.97;;;19.90;97.50;;;;;;4977024;28;20481;-80
2023/08/05 08:23:59;;;;;;;5.30;4.80;;;19.90;97.60;;;;;;4975689;28;20534;-77
2023/08/05 08:26:35;;;;;;;5.20;4.90;;;19.90;97.60;;;;;;4949530;28;21441;-76
2023/08/05 08:29:01;;;;;;;4.87;4.47;;;19.90;97.60;;;;;;4938252;28;20447;-76
2023/08/05 08:31:30;;;;;;;6.07;5.47;;;20.00;97.50;;;;;;5027978;28;21098;-78
2023/08/05 08:33:56;;;;;;;5.73;5.13;;;20.00;97.50;;;;;;5011860;28;20419;-77
2023/08/05 08:36:24;;;;;;;6.10;5.60;;;20.00;97.50;;;;;;5014161;28;20433;-77
2023/08/05 08:38:50;;;;;;;6.47;5.87;;;20.00;97.40;;;;;;5029872;28;20411;-78
2023/08/05 08:41:18;;;;;;;5.50;5.10;;;20.00;97.40;;;;;;5010458;28;21042;-77
2023/08/05 08:43:47;;;;;;;5.27;4.87;;;20.00;97.40;;;;;;4995675;28;20537;-77
2023/08/05 08:46:18;;;;;;;5.47;4.60;;;20.00;97.40;;;;;;5029332;28;20453;-77
2023/08/05 08:48:46;;;;;;;5.70;5.20;;;20.00;97.30;;;;;;4992857;28;20476;-77
2023/08/05 08:51:12;;;;;;;5.23;4.83;;;20.00;97.30;;;;;;5008883;28;20538;-76
2023/08/05 08:53:40;;;;;;;6.30;5.50;;;20.10;97.50;;;;;;4992146;28;20402;-75
2023/08/05 08:56:06;;;;;;;4.87;4.47;;;20.10;97.40;;;;;;4999080;28;21370;-76
2023/08/05 08:58:32;;;;;;;6.00;5.50;;;20.10;97.40;;;;;;5030497;28;20516;-79
2023/08/05 09:00:59;;;;;;;6.47;5.10;;;20.10;97.40;;;;;;4981362;28;20461;-77
2023/08/05 09:03:28;;;;;;;5.83;5.33;;;20.10;97.60;;;;;;5026291;28;20475;-76
2023/08/05 09:05:58;;;;;;;5.70;5.20;;;20.10;97.50;;;;;;5005965;28;20593;-77
2023/08/05 09:08:26;;;;;;;5.23;4.80;;;20.10;97.50;;;;;;4983055;28;20480;-77
2023/08/05 09:10:52;;;;;;;5.03;4.63;;;20.10;97.50;;;;;;4998015;28;20497;-78
2023/08/05 09:13:19;;;;;;;4.80;4.50;;;20.10;97.70;;;;;;5041646;28;20434;-73
2023/08/05 09:15:47;;;;;;;5.50;4.83;;;20.20;97.80;;;;;;5030220;28;20456;-73
2023/08/05 09:18:13;;;;;;;10.60;5.50;;;20.20;97.80;;;;;;4995903;28;20527;-75
2023/08/05 09:20:39;;;;;;;5.57;5.17;;;20.20;97.70;;;;;;5001810;28;20494;-76
2023/08/05 09:23:11;;;;;;;5.93;5.53;;;20.20;97.60;;;;;;5014546;28;20436;-74
2023/08/05 09:25:42;;;;;;;5.80;5.30;;;20.20;97.60;;;;;;5028533;28;20482;-73
2023/08/05 09:28:09;;;;;;;5.60;5.10;;;20.30;97.80;;;;;;5005151;28;20443;-73
2023/08/05 09:30:37;;;;;;;5.50;5.10;;;20.30;97.70;;;;;;5017684;28;21037;-73
2023/08/05 09:33:08;;;;;;;5.20;4.80;;;20.30;97.70;;;;;;5007746;28;20581;-75
2023/08/05 09:35:36;;;;;;;6.00;5.57;;;20.30;97.60;;;;;;5010979;28;20521;-75
2023/08/05 09:38:10;;;;;;;5.30;4.73;;;20.40;97.60;;;;;;4992860;28;20433;-75
2023/08/05 09:40:42;;;;;;;5.00;4.60;;;20.40;97.60;;;;;;4987424;28;21096;-75
2023/08/05 09:43:08;;;;;;;5.50;4.93;;;20.40;97.70;;;;;;5010699;28;20465;-75
2023/08/05 09:45:38;;;;;;;5.27;4.87;;;20.40;97.70;;;;;;4994640;28;21378;-75
2023/08/05 09:48:09;;;;;;;6.60;5.20;;;20.50;97.80;;;;;;5001717;28;20451;-75
2023/08/05 09:50:40;;;;;;;5.30;4.90;;;20.50;97.90;;;;;;5000974;28;20449;-75
2023/08/05 09:53:09;;;;;;;5.87;5.37;;;20.50;97.90;;;;;;4987294;28;20439;-75
2023/08/05 09:55:39;;;;;;;4.93;4.53;;;20.50;97.80;;;;;;4991826;28;20495;-75
2023/08/05 09:58:13;;;;;;;5.83;5.33;;;20.60;97.70;;;;;;5011157;28;20801;-76
2023/08/05 10:00:40;;;;;;;5.20;4.50;;;20.60;97.60;;;;;;4998410;28;20985;-75
2023/08/05 10:03:13;;;;;;;5.63;4.70;;;20.60;97.60;;;;;;5006723;28;20478;-75
2023/08/05 10:05:43;;;;;;;5.00;4.60;;;20.70;97.70;;;;;;5008206;28;20533;-75
2023/08/05 10:08:11;;;;;;;5.47;4.97;;;20.70;97.60;;;;;;5020491;28;20803;-75
2023/08/05 10:10:38;;;;;;;5.20;4.80;;;20.70;97.50;;;;;;4993925;28;20897;-75
2023/08/05 10:13:17;;;;;;;5.60;5.20;;;20.80;97.50;;;;;;5028026;28;20402;-76
2023/08/05 10:15:51;;;;;;;4.80;4.43;;;20.80;97.50;;;;;;4991380;28;20433;-75
2023/08/05 10:18:18;;;;;;;5.23;4.30;;;20.80;97.40;;;;;;4989881;28;20483;-76
2023/08/05 10:20:52;;;;;;;5.20;4.80;;;20.80;97.30;;;;;;5006116;28;20486;-75
2023/08/05 10:23:18;;;;;;;5.77;5.10;;;20.90;97.20;;;;;;4989990;28;20451;-75
2023/08/05 10:25:49;;;;;;;5.60;5.10;;;20.90;97.10;;;;;;5027345;28;20477;-76
2023/08/05 10:28:26;;;;;;;4.90;4.60;;;20.90;97.00;;;;;;4993108;28;20997;-75
2023/08/05 10:30:56;;;;;;;5.47;5.00;;;21.00;97.00;;;;;;5008661;28;20485;-76
2023/08/05 10:33:25;;;;;;;6.13;5.53;;;21.00;96.90;;;;;;4972399;28;20436;-75
2023/08/05 10:36:05;;;;;;;4.83;4.50;;;21.00;96.90;;;;;;5008636;28;20457;-76
2023/08/05 10:38:41;;;;;;;4.90;4.50;;;21.10;96.90;;;;;;4992418;28;21269;-75
2023/08/05 10:41:10;;;;;;;5.23;4.83;;;21.10;96.90;;;;;;5008615;28;20527;-75
2023/08/05 10:43:40;;;;;;;5.30;5.00;;;21.10;96.80;;;;;;5006744;28;20491;-75
2023/08/05 10:46:06;;;;;;;5.90;5.40;;;21.10;96.70;;;;;;4972860;28;20468;-76
2023/08/05 10:48:35;;;;;;;4.70;4.30;;;21.20;96.80;;;;;;5015713;28;20419;-76
2023/08/05 10:51:11;;;;;;;4.80;4.40;;;21.20;96.80;;;;;;5010320;28;20454;-76
2023/08/05 10:54:00;;;;;;;5.00;4.60;;;21.20;97.10;;;;;;4991186;28;20527;-75
2023/08/05 10:56:34;;;;;;;4.90;4.60;;;21.20;96.80;;;;;;4990274;28;20574;-79
2023/08/05 10:59:01;;;;;;;5.47;5.07;;;21.30;96.80;;;;;;5019568;28;20522;-76
2023/08/05 11:01:55;;;;;;;4.57;4.27;;;21.30;96.60;;;;;;4993453;28;21018;-76
2023/08/05 11:04:31;;;;;;;5.07;4.67;;;21.30;96.40;;;;;;4967822;28;20431;-76
2023/08/05 11:07:02;;;;;;;5.10;4.70;;;21.30;96.30;;;;;;4974269;28;20446;-76
2023/08/05 11:09:36;;;;;;;5.30;4.90;;;21.40;96.40;;;;;;5000450;28;20426;-76
2023/08/05 11:12:04;;;;;;;5.10;4.70;;;21.40;96.20;;;;;;4994023;28;20454;-76
2023/08/05 11:14:31;;;;;;;5.03;4.63;;;21.40;96.30;;;;;;5009263;28;20917;-76
2023/08/05 11:17:07;;;;;;;5.83;5.10;;;21.40;96.20;;;;;;4992484;28;20441;-76
2023/08/05 11:19:53;;;;;;;4.90;4.60;;;21.50;96.20;;;;;;4998820;28;20459;-76
2023/08/05 11:22:26;;;;;;;5.37;4.97;;;21.50;96.10;;;;;;4991377;28;20495;-75
2023/08/05 11:25:03;;;;;;;5.00;4.60;;;21.50;96.10;;;;;;5026858;28;20522;-76
2023/08/05 11:27:34;;;;;;;5.20;4.80;;;21.50;96.00;;;;;;5008483;28;20555;-76
2023/08/05 11:30:20;;;;;;;4.57;4.27;;;21.60;96.00;;;;;;5011515;28;20474;-75
2023/08/05 11:33:01;;;;;;;4.70;4.40;;;21.60;95.90;;;;;;4974969;28;20451;-75
2023/08/05 11:35:29;;;;;;;5.00;4.57;;;21.60;95.80;;;;;;4975475;28;21015;-75
2023/08/05 11:37:56;;;;;;;5.03;4.63;;;21.60;95.70;;;;;;5007948;28;20422;-75
2023/08/05 11:40:25;;;;;;;4.90;4.60;;;21.60;95.70;;;;;;5007816;28;20447;-76
2023/08/05 11:42:52;;;;;;;5.20;4.80;;;21.60;95.70;;;;;;5012987;28;20422;-75
2023/08/05 11:48:19;;;;;;;4.77;4.37;;;21.70;95.50;;;;;;4967389;28;20476;-76
2023/08/05 11:50:45;;;;;;;5.73;5.23;;;21.70;95.50;;;;;;4992983;28;20448;-77
2023/08/05 11:53:14;;;;;;;5.47;4.93;;;21.70;95.50;;;;;;4991556;28;20474;-77
2023/08/05 11:55:42;;;;;;;4.90;4.60;;;21.70;95.30;;;;;;4991558;28;20785;-76
2023/08/05 11:58:08;;;;;;;4.90;4.60;;;21.70;95.20;;;;;;4974663;28;20416;-77
2023/08/05 12:00:37;;;;;;;4.20;3.90;;;21.70;95.20;;;;;;4971932;28;20467;-76
2023/08/05 12:03:04;;;;;;;4.70;4.40;;;21.70;95.20;;;;;;4970784;28;20408;-75
2023/08/05 12:05:31;;;;;;;4.97;4.53;;;21.70;95.10;;;;;;4972122;28;20469;-75
2023/08/05 12:07:59;;;;;;;4.40;4.10;;;21.80;95.10;;;;;;4989986;28;20422;-75
2023/08/05 12:10:27;;;;;;;7.00;4.77;;;21.80;95.10;;;;;;4970983;28;20785;-76
2023/08/05 12:12:55;;;;;;;4.90;4.50;;;21.80;95.00;;;;;;4971088;28;20417;-77
2023/08/05 12:15:26;;;;;;;5.03;4.70;;;21.80;94.80;;;;;;4988202;28;20405;-76
2023/08/05 12:18:06;;;;;;;4.50;4.20;;;21.90;94.80;;;;;;4953772;28;20444;-76
2023/08/05 12:20:34;;;;;;;4.27;3.97;;;21.90;94.80;;;;;;4986838;28;20436;-76
2023/08/05 12:23:03;;;;;;;4.00;3.70;;;21.90;94.80;;;;;;4985544;28;20408;-76
2023/08/05 12:25:32;;;;;;;4.47;4.07;;;21.90;94.80;;;;;;4986220;28;20460;-76
2023/08/05 12:27:59;;;;;;;4.40;4.10;;;21.90;94.80;;;;;;4969521;28;20441;-76
2023/08/05 12:30:28;;;;;;;5.47;4.37;;;22.00;94.80;;;;;;4988218;28;20479;-76
2023/08/05 12:32:57;;;;;;;4.73;4.33;;;22.00;94.80;;;;;;5006980;28;20433;-76
2023/08/05 12:35:23;;;;;;;4.67;4.27;;;22.00;94.70;;;;;;5008365;28;20431;-77
2023/08/05 12:37:49;;;;;;;4.90;4.50;;;22.00;94.70;;;;;;4990556;28;20436;-76
2023/08/05 12:40:17;;;;;;;4.30;4.00;;;22.10;94.60;;;;;;4989663;28;20468;-75
2023/08/05 12:42:43;;;;;;;4.40;4.10;;;22.10;94.50;;;;;;5007948;28;20416;-76
2023/08/05 12:45:12;;;;;;;4.80;4.43;;;22.10;94.40;;;;;;5007240;28;20194;-77
2023/08/05 12:47:38;;;;;;;4.20;3.90;;;22.10;94.30;;;;;;5008074;28;20437;-77
2023/08/05 12:50:06;;;;;;;5.17;4.77;;;22.10;94.20;;;;;;4958501;28;20456;-77
2023/08/05 12:52:33;;;;;;;4.27;3.97;;;22.20;94.30;;;;;;4971510;28;20425;-77
2023/08/05 12:54:59;;;;;;;4.27;3.97;;;22.20;94.20;;;;;;4954785;28;20405;-76
2023/08/05 12:57:25;;;;;;;4.37;3.97;;;22.20;94.20;;;;;;4970802;28;20429;-76